sensor_id;sensor_type;location;lat;lon;timestamp;temperature;humidity
23083;DHT22;11709;52.420;10.538;2023-04-16T00:01:46;9.90;99.90
23083;DHT22;11709;52.420;10.538;2023-04-16T00:05:48;9.90;99.90
23083;DHT22;11709;52.420;10.538;2023-04-16T00:09:51;9.90;99.90
23083;DHT22;11709;52.420;10.538;2023-04-16T00:13:53;9.90;99.90
23083;DHT22;11709;52.420;10.538;2023-04-16T00:17:56;9.80;99.90
23083;DHT22;11709;52.420;10.538;2023-04-16T00:21:58;9.70;99.90
23083;DHT22;11709;52.420;10.538;2023-04-16T00:26:01;9.70;99.90
23083;DHT22;11709;52.420;10.538;2023-04-16T00:30:04;9.60;99.90
23083;DHT22;11709;52.420;10.538;2023-04-16T00:34:07;9.60;99.90
23083;DHT22;11709;52.420;10.538;2023-04-16T00:38:09;9.60;99.90
23083;DHT22;11709;52.420;10.538;2023-04-16T00:42:12;9.50;99.90
23083;DHT22;11709;52.420;10.538;2023-04-16T00:46:15;9.40;99.90
23083;DHT22;11709;52.420;10.538;2023-04-16T00:50:20;9.40;99.90
23083;DHT22;11709;52.420;10.538;2023-04-16T00:54:24;9.40;99.90
23083;DHT22;11709;52.420;10.538;2023-04-16T00:58:28;9.30;99.90
23083;DHT22;11709;52.420;10.538;2023-04-16T01:02:31;9.30;99.90
23083;DHT22;11709;52.420;10.538;2023-04-16T01:06:34;9.30;99.90
23083;DHT22;11709;52.420;10.538;2023-04-16T01:10:37;9.20;99.90
23083;DHT22;11709;52.420;10.538;2023-04-16T01:14:39;9.20;99.90
23083;DHT22;11709;52.420;10.538;2023-04-16T01:18:42;9.20;99.90
23083;DHT22;11709;52.420;10.538;2023-04-16T01:22:44;9.20;99.90
23083;DHT22;11709;52.420;10.538;2023-04-16T01:26:47;9.10;99.90
23083;DHT22;11709;52.420;10.538;2023-04-16T01:30:49;9.10;99.90
23083;DHT22;11709;52.420;10.538;2023-04-16T01:34:52;9.00;99.90
23083;DHT22;11709;52.420;10.538;2023-04-16T01:38:54;9.10;99.90
23083;DHT22;11709;52.420;10.538;2023-04-16T01:42:57;9.10;99.90
23083;DHT22;11709;52.420;10.538;2023-04-16T01:46:59;9.10;99.90
23083;DHT22;11709;52.420;10.538;2023-04-16T01:51:02;9.00;99.90
23083;DHT22;11709;52.420;10.538;2023-04-16T01:55:05;9.00;99.90
23083;DHT22;11709;52.420;10.538;2023-04-16T01:59:08;9.00;99.90
23083;DHT22;11709;52.420;10.538;2023-04-16T02:03:11;9.00;99.90
23083;DHT22;11709;52.420;10.538;2023-04-16T02:07:13;9.00;99.90
23083;DHT22;11709;52.420;10.538;2023-04-16T02:11:16;9.00;99.90
23083;DHT22;11709;52.420;10.538;2023-04-16T02:15:18;9.00;99.90
23083;DHT22;11709;52.420;10.538;2023-04-16T02:19:21;9.00;99.90
23083;DHT22;11709;52.420;10.538;2023-04-16T02:23:23;8.90;99.90
23083;DHT22;11709;52.420;10.538;2023-04-16T02:27:26;8.90;99.90
23083;DHT22;11709;52.420;10.538;2023-04-16T02:31:28;8.80;99.90
23083;DHT22;11709;52.420;10.538;2023-04-16T02:35:32;8.80;99.90
23083;DHT22;11709;52.420;10.538;2023-04-16T02:39:35;8.80;99.90
23083;DHT22;11709;52.420;10.538;2023-04-16T02:43:37;8.70;99.90
23083;DHT22;11709;52.420;10.538;2023-04-16T02:47:40;8.70;99.90
23083;DHT22;11709;52.420;10.538;2023-04-16T02:51:42;8.70;99.90
23083;DHT22;11709;52.420;10.538;2023-04-16T02:55:52;8.70;99.90
23083;DHT22;11709;52.420;10.538;2023-04-16T02:59:55;8.70;99.90
23083;DHT22;11709;52.420;10.538;2023-04-16T03:03:57;8.70;99.90
23083;DHT22;11709;52.420;10.538;2023-04-16T03:08:00;8.70;99.90
23083;DHT22;11709;52.420;10.538;2023-04-16T03:12:02;8.60;99.90
23083;DHT22;11709;52.420;10.538;2023-04-16T03:16:05;8.60;99.90
23083;DHT22;11709;52.420;10.538;2023-04-16T03:20:08;8.60;99.90
23083;DHT22;11709;52.420;10.538;2023-04-16T03:24:11;8.60;99.90
23083;DHT22;11709;52.420;10.538;2023-04-16T03:28:13;8.60;99.90
23083;DHT22;11709;52.420;10.538;2023-04-16T03:32:16;8.60;99.90
23083;DHT22;11709;52.420;10.538;2023-04-16T03:36:19;8.60;99.90
23083;DHT22;11709;52.420;10.538;2023-04-16T03:40:23;8.60;99.90
23083;DHT22;11709;52.420;10.538;2023-04-16T03:44:25;8.60;99.90
23083;DHT22;11709;52.420;10.538;2023-04-16T03:48:28;8.60;99.90
23083;DHT22;11709;52.420;10.538;2023-04-16T03:52:30;8.60;99.90
23083;DHT22;11709;52.420;10.538;2023-04-16T03:56:33;8.60;99.90
23083;DHT22;11709;52.420;10.538;2023-04-16T04:00:35;8.50;99.90
23083;DHT22;11709;52.420;10.538;2023-04-16T04:04:38;8.50;99.90
23083;DHT22;11709;52.420;10.538;2023-04-16T04:08:41;8.50;99.90
23083;DHT22;11709;52.420;10.538;2023-04-16T04:12:43;8.50;99.90
23083;DHT22;11709;52.420;10.538;2023-04-16T04:16:46;8.50;99.90
23083;DHT22;11709;52.420;10.538;2023-04-16T04:20:48;8.50;99.90
23083;DHT22;11709;52.420;10.538;2023-04-16T04:24:51;8.40;99.90
23083;DHT22;11709;52.420;10.538;2023-04-16T04:28:53;8.40;99.90
23083;DHT22;11709;52.420;10.538;2023-04-16T04:32:56;8.40;99.90
23083;DHT22;11709;52.420;10.538;2023-04-16T04:36:58;8.40;99.90
23083;DHT22;11709;52.420;10.538;2023-04-16T04:41:01;8.40;99.90
23083;DHT22;11709;52.420;10.538;2023-04-16T04:45:04;8.40;99.90
23083;DHT22;11709;52.420;10.538;2023-04-16T04:49:07;8.40;99.90
23083;DHT22;11709;52.420;10.538;2023-04-16T04:53:09;8.40;99.90
23083;DHT22;11709;52.420;10.538;2023-04-16T04:57:12;8.40;99.90
23083;DHT22;11709;52.420;10.538;2023-04-16T05:01:15;8.40;99.90
23083;DHT22;11709;52.420;10.538;2023-04-16T05:05:17;8.40;99.90
23083;DHT22;11709;52.420;10.538;2023-04-16T05:09:20;8.40;99.90
23083;DHT22;11709;52.420;10.538;2023-04-16T05:13:22;8.40;99.90
23083;DHT22;11709;52.420;10.538;2023-04-16T05:17:25;8.40;99.90
23083;DHT22;11709;52.420;10.538;2023-04-16T05:21:27;8.40;99.90
23083;DHT22;11709;52.420;10.538;2023-04-16T05:25:30;8.40;99.90
23083;DHT22;11709;52.420;10.538;2023-04-16T05:29:34;8.50;99.90
23083;DHT22;11709;52.420;10.538;2023-04-16T05:33:36;8.50;99.90
23083;DHT22;11709;52.420;10.538;2023-04-16T05:37:39;8.50;99.90
23083;DHT22;11709;52.420;10.538;2023-04-16T05:41:42;8.50;99.90
23083;DHT22;11709;52.420;10.538;2023-04-16T05:45:46;8.50;99.90
23083;DHT22;11709;52.420;10.538;2023-04-16T05:49:48;8.50;99.90
23083;DHT22;11709;52.420;10.538;2023-04-16T05:53:51;8.50;99.90
23083;DHT22;11709;52.420;10.538;2023-04-16T05:57:53;8.50;99.90
23083;DHT22;11709;52.420;10.538;2023-04-16T06:01:56;8.60;99.90
23083;DHT22;11709;52.420;10.538;2023-04-16T06:06:00;8.60;99.90
23083;DHT22;11709;52.420;10.538;2023-04-16T06:10:03;8.60;99.90
23083;DHT22;11709;52.420;10.538;2023-04-16T06:14:05;8.60;99.90
23083;DHT22;11709;52.420;10.538;2023-04-16T06:18:08;8.70;99.90
23083;DHT22;11709;52.420;10.538;2023-04-16T06:22:10;8.70;99.90
23083;DHT22;11709;52.420;10.538;2023-04-16T06:26:13;8.70;99.90
23083;DHT22;11709;52.420;10.538;2023-04-16T06:30:15;8.70;99.90
23083;DHT22;11709;52.420;10.538;2023-04-16T06:34:18;8.70;99.90
23083;DHT22;11709;52.420;10.538;2023-04-16T06:38:20;8.70;99.90
23083;DHT22;11709;52.420;10.538;2023-04-16T06:42:23;8.70;99.90
23083;DHT22;11709;52.420;10.538;2023-04-16T06:46:25;8.70;99.90
23083;DHT22;11709;52.420;10.538;2023-04-16T06:50:28;8.80;99.90
23083;DHT22;11709;52.420;10.538;2023-04-16T06:54:31;8.80;99.90
23083;DHT22;11709;52.420;10.538;2023-04-16T06:58:33;8.90;99.90
23083;DHT22;11709;52.420;10.538;2023-04-16T07:02:36;8.90;99.90
23083;DHT22;11709;52.420;10.538;2023-04-16T07:06:39;9.00;99.90
23083;DHT22;11709;52.420;10.538;2023-04-16T07:10:41;9.00;99.90
23083;DHT22;11709;52.420;10.538;2023-04-16T07:14:44;9.00;99.90
23083;DHT22;11709;52.420;10.538;2023-04-16T07:18:47;9.00;99.90
23083;DHT22;11709;52.420;10.538;2023-04-16T07:22:50;9.10;99.90
23083;DHT22;11709;52.420;10.538;2023-04-16T07:26:52;9.10;99.90
23083;DHT22;11709;52.420;10.538;2023-04-16T07:30:55;9.10;99.90
23083;DHT22;11709;52.420;10.538;2023-04-16T07:34:57;9.10;99.90
23083;DHT22;11709;52.420;10.538;2023-04-16T07:39:00;9.10;99.90
23083;DHT22;11709;52.420;10.538;2023-04-16T07:43:02;9.20;99.90
23083;DHT22;11709;52.420;10.538;2023-04-16T07:47:05;9.10;99.90
23083;DHT22;11709;52.420;10.538;2023-04-16T07:51:07;9.20;99.90
23083;DHT22;11709;52.420;10.538;2023-04-16T07:55:10;9.20;99.90
23083;DHT22;11709;52.420;10.538;2023-04-16T07:59:12;9.20;99.90
23083;DHT22;11709;52.420;10.538;2023-04-16T08:03:15;9.20;99.90
23083;DHT22;11709;52.420;10.538;2023-04-16T08:07:18;9.30;99.90
23083;DHT22;11709;52.420;10.538;2023-04-16T08:11:20;9.30;99.90
23083;DHT22;11709;52.420;10.538;2023-04-16T08:15:23;9.30;99.90
23083;DHT22;11709;52.420;10.538;2023-04-16T08:19:25;9.30;99.90
23083;DHT22;11709;52.420;10.538;2023-04-16T08:23:28;9.20;99.90
23083;DHT22;11709;52.420;10.538;2023-04-16T08:27:30;9.20;99.90
23083;DHT22;11709;52.420;10.538;2023-04-16T08:31:33;9.10;99.90
23083;DHT22;11709;52.420;10.538;2023-04-16T08:35:35;9.20;99.90
23083;DHT22;11709;52.420;10.538;2023-04-16T08:39:38;9.10;99.90
23083;DHT22;11709;52.420;10.538;2023-04-16T08:43:43;9.10;99.90
23083;DHT22;11709;52.420;10.538;2023-04-16T08:47:49;9.10;99.90
23083;DHT22;11709;52.420;10.538;2023-04-16T08:51:54;9.00;99.90
23083;DHT22;11709;52.420;10.538;2023-04-16T08:55:58;9.10;99.90
23083;DHT22;11709;52.420;10.538;2023-04-16T09:00:02;9.10;99.90
23083;DHT22;11709;52.420;10.538;2023-04-16T09:04:06;9.10;99.90
23083;DHT22;11709;52.420;10.538;2023-04-16T09:08:09;9.00;99.90
23083;DHT22;11709;52.420;10.538;2023-04-16T09:12:11;9.10;99.90
23083;DHT22;11709;52.420;10.538;2023-04-16T09:16:14;9.10;99.90
23083;DHT22;11709;52.420;10.538;2023-04-16T09:20:16;9.10;99.90
23083;DHT22;11709;52.420;10.538;2023-04-16T09:24:20;9.10;99.90
23083;DHT22;11709;52.420;10.538;2023-04-16T09:28:42;9.00;99.90
23083;DHT22;11709;52.420;10.538;2023-04-16T09:32:45;9.10;99.90
23083;DHT22;11709;52.420;10.538;2023-04-16T09:36:47;9.10;99.90
23083;DHT22;11709;52.420;10.538;2023-04-16T09:41:07;9.10;99.90
23083;DHT22;11709;52.420;10.538;2023-04-16T09:45:10;9.10;99.90
23083;DHT22;11709;52.420;10.538;2023-04-16T09:49:16;9.10;99.90
23083;DHT22;11709;52.420;10.538;2023-04-16T09:53:24;9.10;99.90
23083;DHT22;11709;52.420;10.538;2023-04-16T09:57:27;9.10;99.90
23083;DHT22;11709;52.420;10.538;2023-04-16T10:01:30;9.20;99.90
23083;DHT22;11709;52.420;10.538;2023-04-16T10:05:33;9.20;99.90
23083;DHT22;11709;52.420;10.538;2023-04-16T10:09:38;9.30;99.90
23083;DHT22;11709;52.420;10.538;2023-04-16T10:13:42;9.30;99.90
23083;DHT22;11709;52.420;10.538;2023-04-16T10:17:45;9.30;99.90
23083;DHT22;11709;52.420;10.538;2023-04-16T10:21:47;9.30;99.90
23083;DHT22;11709;52.420;10.538;2023-04-16T10:25:51;9.40;99.90
23083;DHT22;11709;52.420;10.538;2023-04-16T10:29:55;9.40;99.90
23083;DHT22;11709;52.420;10.538;2023-04-16T10:33:58;9.40;99.90
23083;DHT22;11709;52.420;10.538;2023-04-16T10:38:27;9.50;99.90
23083;DHT22;11709;52.420;10.538;2023-04-16T10:42:25;9.60;99.90
23083;DHT22;11709;52.420;10.538;2023-04-16T10:46:32;9.70;99.90
23083;DHT22;11709;52.420;10.538;2023-04-16T10:50:37;9.80;99.90
23083;DHT22;11709;52.420;10.538;2023-04-16T10:54:40;9.80;99.90
23083;DHT22;11709;52.420;10.538;2023-04-16T10:58:42;9.90;99.90
23083;DHT22;11709;52.420;10.538;2023-04-16T11:02:45;10.00;99.90
23083;DHT22;11709;52.420;10.538;2023-04-16T11:11:20;10.30;99.90
23083;DHT22;11709;52.420;10.538;2023-04-16T11:15:22;10.40;99.90
23083;DHT22;11709;52.420;10.538;2023-04-16T11:19:26;10.50;99.90
23083;DHT22;11709;52.420;10.538;2023-04-16T11:23:29;10.50;99.90
23083;DHT22;11709;52.420;10.538;2023-04-16T11:27:32;10.70;99.90
23083;DHT22;11709;52.420;10.538;2023-04-16T11:31:34;10.80;99.90
23083;DHT22;11709;52.420;10.538;2023-04-16T11:35:38;10.80;99.90
23083;DHT22;11709;52.420;10.538;2023-04-16T11:39:52;11.00;99.90
23083;DHT22;11709;52.420;10.538;2023-04-16T11:43:54;11.10;99.90
23083;DHT22;11709;52.420;10.538;2023-04-16T11:47:57;11.40;99.90
23083;DHT22;11709;52.420;10.538;2023-04-16T11:51:59;11.50;99.90
23083;DHT22;11709;52.420;10.538;2023-04-16T11:56:02;11.60;99.90
23083;DHT22;11709;52.420;10.538;2023-04-16T12:00:05;11.60;99.90
23083;DHT22;11709;52.420;10.538;2023-04-16T12:04:14;11.70;99.90
23083;DHT22;11709;52.420;10.538;2023-04-16T12:08:28;11.70;99.90
23083;DHT22;11709;52.420;10.538;2023-04-16T12:12:34;11.90;99.90
23083;DHT22;11709;52.420;10.538;2023-04-16T12:16:37;11.90;99.90
23083;DHT22;11709;52.420;10.538;2023-04-16T12:20:40;11.90;99.90
23083;DHT22;11709;52.420;10.538;2023-04-16T12:24:43;11.90;99.90
23083;DHT22;11709;52.420;10.538;2023-04-16T12:28:45;11.90;99.90
23083;DHT22;11709;52.420;10.538;2023-04-16T12:32:49;12.00;99.90
23083;DHT22;11709;52.420;10.538;2023-04-16T12:37:06;12.10;99.90
23083;DHT22;11709;52.420;10.538;2023-04-16T12:41:10;12.00;99.90
23083;DHT22;11709;52.420;10.538;2023-04-16T12:45:13;12.10;99.90
23083;DHT22;11709;52.420;10.538;2023-04-16T12:49:17;12.10;99.90
23083;DHT22;11709;52.420;10.538;2023-04-16T12:53:19;12.00;99.90
23083;DHT22;11709;52.420;10.538;2023-04-16T12:57:22;12.10;99.90
23083;DHT22;11709;52.420;10.538;2023-04-16T13:01:26;12.20;99.90
23083;DHT22;11709;52.420;10.538;2023-04-16T13:05:28;12.30;99.90
23083;DHT22;11709;52.420;10.538;2023-04-16T13:09:31;12.40;99.90
23083;DHT22;11709;52.420;10.538;2023-04-16T13:13:33;12.50;99.90
23083;DHT22;11709;52.420;10.538;2023-04-16T13:17:36;12.60;99.90
23083;DHT22;11709;52.420;10.538;2023-04-16T13:21:39;12.80;99.90
23083;DHT22;11709;52.420;10.538;2023-04-16T13:25:41;13.30;99.90
23083;DHT22;11709;52.420;10.538;2023-04-16T13:29:44;13.70;99.90
23083;DHT22;11709;52.420;10.538;2023-04-16T13:33:47;14.10;99.90
23083;DHT22;11709;52.420;10.538;2023-04-16T13:37:50;14.60;99.90
23083;DHT22;11709;52.420;10.538;2023-04-16T13:41:52;14.90;99.90
23083;DHT22;11709;52.420;10.538;2023-04-16T13:45:55;15.20;99.90
23083;DHT22;11709;52.420;10.538;2023-04-16T13:49:57;15.30;99.90
23083;DHT22;11709;52.420;10.538;2023-04-16T13:54:00;15.20;99.90
23083;DHT22;11709;52.420;10.538;2023-04-16T13:58:02;15.10;99.90
23083;DHT22;11709;52.420;10.538;2023-04-16T14:02:05;14.90;99.90
23083;DHT22;11709;52.420;10.538;2023-04-16T14:06:07;14.90;99.90
23083;DHT22;11709;52.420;10.538;2023-04-16T14:10:10;15.90;99.90
23083;DHT22;11709;52.420;10.538;2023-04-16T14:14:14;17.30;99.90
23083;DHT22;11709;52.420;10.538;2023-04-16T14:18:16;18.50;99.90
23083;DHT22;11709;52.420;10.538;2023-04-16T14:22:18;18.50;99.90
23083;DHT22;11709;52.420;10.538;2023-04-16T14:26:19;18.30;99.90
23083;DHT22;11709;52.420;10.538;2023-04-16T14:30:22;17.80;99.90
23083;DHT22;11709;52.420;10.538;2023-04-16T14:34:24;17.30;99.90
23083;DHT22;11709;52.420;10.538;2023-04-16T14:38:26;16.70;99.90
23083;DHT22;11709;52.420;10.538;2023-04-16T14:42:28;16.30;99.90
23083;DHT22;11709;52.420;10.538;2023-04-16T14:46:30;15.90;99.90
23083;DHT22;11709;52.420;10.538;2023-04-16T14:50:33;15.60;99.90
23083;DHT22;11709;52.420;10.538;2023-04-16T14:54:38;15.50;99.90
23083;DHT22;11709;52.420;10.538;2023-04-16T14:58:40;15.40;99.90
23083;DHT22;11709;52.420;10.538;2023-04-16T15:02:44;15.30;99.90
23083;DHT22;11709;52.420;10.538;2023-04-16T15:06:47;15.20;99.90
23083;DHT22;11709;52.420;10.538;2023-04-16T15:10:50;15.20;99.90
23083;DHT22;11709;52.420;10.538;2023-04-16T15:14:51;15.20;99.90
23083;DHT22;11709;52.420;10.538;2023-04-16T15:18:53;15.10;99.90
23083;DHT22;11709;52.420;10.538;2023-04-16T15:22:55;15.00;99.90
23083;DHT22;11709;52.420;10.538;2023-04-16T15:26:57;14.90;99.90
23083;DHT22;11709;52.420;10.538;2023-04-16T15:30:59;14.70;99.90
23083;DHT22;11709;52.420;10.538;2023-04-16T15:35:01;14.50;99.90
23083;DHT22;11709;52.420;10.538;2023-04-16T15:39:04;14.30;99.90
23083;DHT22;11709;52.420;10.538;2023-04-16T15:43:06;14.20;99.90
23083;DHT22;11709;52.420;10.538;2023-04-16T15:47:08;14.10;99.90
23083;DHT22;11709;52.420;10.538;2023-04-16T15:51:10;14.00;99.90
23083;DHT22;11709;52.420;10.538;2023-04-16T15:55:11;13.90;99.90
23083;DHT22;11709;52.420;10.538;2023-04-16T15:59:13;13.70;99.90
23083;DHT22;11709;52.420;10.538;2023-04-16T16:03:16;13.40;99.90
23083;DHT22;11709;52.420;10.538;2023-04-16T16:07:18;13.40;99.90
23083;DHT22;11709;52.420;10.538;2023-04-16T16:11:21;13.20;99.90
23083;DHT22;11709;52.420;10.538;2023-04-16T16:15:23;13.20;99.90
23083;DHT22;11709;52.420;10.538;2023-04-16T16:19:25;13.10;99.90
23083;DHT22;11709;52.420;10.538;2023-04-16T16:23:28;13.00;99.90
23083;DHT22;11709;52.420;10.538;2023-04-16T16:27:30;12.90;99.90
23083;DHT22;11709;52.420;10.538;2023-04-16T16:31:32;12.90;99.90
23083;DHT22;11709;52.420;10.538;2023-04-16T16:35:33;12.80;99.90
23083;DHT22;11709;52.420;10.538;2023-04-16T16:39:35;12.80;99.90
23083;DHT22;11709;52.420;10.538;2023-04-16T16:43:37;12.80;99.90
23083;DHT22;11709;52.420;10.538;2023-04-16T16:47:39;12.70;99.90
23083;DHT22;11709;52.420;10.538;2023-04-16T16:51:43;12.70;99.90
23083;DHT22;11709;52.420;10.538;2023-04-16T16:55:45;12.60;99.90
23083;DHT22;11709;52.420;10.538;2023-04-16T16:59:49;12.60;99.90
23083;DHT22;11709;52.420;10.538;2023-04-16T17:03:54;12.50;99.90
23083;DHT22;11709;52.420;10.538;2023-04-16T17:07:56;12.30;99.90
23083;DHT22;11709;52.420;10.538;2023-04-16T17:11:59;12.10;99.90
23083;DHT22;11709;52.420;10.538;2023-04-16T17:16:02;12.10;99.90
23083;DHT22;11709;52.420;10.538;2023-04-16T17:20:08;12.10;99.90
23083;DHT22;11709;52.420;10.538;2023-04-16T17:24:10;12.00;99.90
23083;DHT22;11709;52.420;10.538;2023-04-16T17:28:13;12.40;99.90
23083;DHT22;11709;52.420;10.538;2023-04-16T17:32:15;12.10;99.90
23083;DHT22;11709;52.420;10.538;2023-04-16T17:36:18;11.50;99.90
23083;DHT22;11709;52.420;10.538;2023-04-16T17:40:22;12.10;99.90
23083;DHT22;11709;52.420;10.538;2023-04-16T18:20:50;11.10;99.90
23083;DHT22;11709;52.420;10.538;2023-04-16T18:32:58;11.30;99.90
23083;DHT22;11709;52.420;10.538;2023-04-16T18:41:03;11.70;99.90
23083;DHT22;11709;52.420;10.538;2023-04-16T18:45:06;12.00;99.90
23083;DHT22;11709;52.420;10.538;2023-04-16T19:25:35;11.00;99.90
23083;DHT22;11709;52.420;10.538;2023-04-16T19:29:38;11.80;99.90
23083;DHT22;11709;52.420;10.538;2023-04-16T19:41:47;10.90;99.90
23083;DHT22;11709;52.420;10.538;2023-04-16T19:45:49;11.20;99.90
23083;DHT22;11709;52.420;10.538;2023-04-16T19:49:53;11.10;99.90
23083;DHT22;11709;52.420;10.538;2023-04-16T19:57:59;11.00;99.90
23083;DHT22;11709;52.420;10.538;2023-04-16T20:06:06;11.30;99.90
23083;DHT22;11709;52.420;10.538;2023-04-16T20:26:19;11.00;99.90
23083;DHT22;11709;52.420;10.538;2023-04-16T20:30:23;10.70;99.90
23083;DHT22;11709;52.420;10.538;2023-04-16T20:34:27;10.70;99.90
23083;DHT22;11709;52.420;10.538;2023-04-16T20:38:29;10.70;99.90
23083;DHT22;11709;52.420;10.538;2023-04-16T20:42:32;10.70;99.90
23083;DHT22;11709;52.420;10.538;2023-04-16T20:46:35;10.30;99.90
23083;DHT22;11709;52.420;10.538;2023-04-16T20:50:42;10.20;99.90
23083;DHT22;11709;52.420;10.538;2023-04-16T20:54:44;10.70;99.90
23083;DHT22;11709;52.420;10.538;2023-04-16T20:58:47;10.60;99.90
23083;DHT22;11709;52.420;10.538;2023-04-16T21:02:50;10.60;99.90
23083;DHT22;11709;52.420;10.538;2023-04-16T21:06:52;10.50;99.90
23083;DHT22;11709;52.420;10.538;2023-04-16T21:10:55;10.40;99.90
23083;DHT22;11709;52.420;10.538;2023-04-16T21:14:57;10.40;99.90
23083;DHT22;11709;52.420;10.538;2023-04-16T21:18:59;10.40;99.90
23083;DHT22;11709;52.420;10.538;2023-04-16T21:23:01;10.40;99.90
23083;DHT22;11709;52.420;10.538;2023-04-16T21:27:03;10.40;99.90
23083;DHT22;11709;52.420;10.538;2023-04-16T21:31:05;10.40;99.90
23083;DHT22;11709;52.420;10.538;2023-04-16T21:35:08;10.40;99.90
23083;DHT22;11709;52.420;10.538;2023-04-16T21:39:11;10.40;99.90
23083;DHT22;11709;52.420;10.538;2023-04-16T21:43:14;10.40;99.90
23083;DHT22;11709;52.420;10.538;2023-04-16T21:47:18;10.40;99.90
23083;DHT22;11709;52.420;10.538;2023-04-16T21:51:20;10.30;99.90
23083;DHT22;11709;52.420;10.538;2023-04-16T21:55:24;10.30;99.90
23083;DHT22;11709;52.420;10.538;2023-04-16T21:59:26;10.30;99.90
23083;DHT22;11709;52.420;10.538;2023-04-16T22:03:29;10.30;99.90
23083;DHT22;11709;52.420;10.538;2023-04-16T22:07:31;10.30;99.90
23083;DHT22;11709;52.420;10.538;2023-04-16T22:11:34;10.20;99.90
23083;DHT22;11709;52.420;10.538;2023-04-16T22:15:36;10.20;99.90
23083;DHT22;11709;52.420;10.538;2023-04-16T22:19:38;10.10;99.90
23083;DHT22;11709;52.420;10.538;2023-04-16T22:23:44;10.00;99.90
23083;DHT22;11709;52.420;10.538;2023-04-16T22:27:46;10.00;99.90
23083;DHT22;11709;52.420;10.538;2023-04-16T22:31:49;9.90;99.90
23083;DHT22;11709;52.420;10.538;2023-04-16T22:35:51;9.80;99.90
23083;DHT22;11709;52.420;10.538;2023-04-16T22:39:54;9.80;99.90
23083;DHT22;11709;52.420;10.538;2023-04-16T22:43:56;9.70;99.90
23083;DHT22;11709;52.420;10.538;2023-04-16T22:47:58;9.70;99.90
23083;DHT22;11709;52.420;10.538;2023-04-16T22:52:01;9.70;99.90
23083;DHT22;11709;52.420;10.538;2023-04-16T22:56:03;9.70;99.90
23083;DHT22;11709;52.420;10.538;2023-04-16T23:00:07;9.50;99.90
23083;DHT22;11709;52.420;10.538;2023-04-16T23:04:11;9.50;99.90
23083;DHT22;11709;52.420;10.538;2023-04-16T23:08:13;9.50;99.90
23083;DHT22;11709;52.420;10.538;2023-04-16T23:12:16;9.40;99.90
23083;DHT22;11709;52.420;10.538;2023-04-16T23:16:18;9.30;99.90
23083;DHT22;11709;52.420;10.538;2023-04-16T23:20:21;9.30;99.90
23083;DHT22;11709;52.420;10.538;2023-04-16T23:24:23;9.20;99.90
23083;DHT22;11709;52.420;10.538;2023-04-16T23:28:27;9.10;99.90
23083;DHT22;11709;52.420;10.538;2023-04-16T23:32:29;9.00;99.90
23083;DHT22;11709;52.420;10.538;2023-04-16T23:36:32;9.00;99.90
23083;DHT22;11709;52.420;10.538;2023-04-16T23:40:34;8.90;99.90
23083;DHT22;11709;52.420;10.538;2023-04-16T23:44:37;8.90;99.90
23083;DHT22;11709;52.420;10.538;2023-04-16T23:48:39;8.80;99.90
23083;DHT22;11709;52.420;10.538;2023-04-16T23:52:41;8.80;99.90
23083;DHT22;11709;52.420;10.538;2023-04-16T23:56:43;8.70;99.90
